createdAt,value
2023-02-13T00:01:01.172Z,79.52
2023-02-13T00:02:03.065Z,78.95
2023-02-13T00:03:05.230Z,79.21
2023-02-13T00:04:06.759Z,78.35
2023-02-13T00:05:08.510Z,78.50
2023-02-13T00:06:10.165Z,78.25
2023-02-13T00:07:12.366Z,78.03
2023-02-13T00:08:14.006Z,78.61
2023-02-13T00:09:15.633Z,78.45
2023-02-13T00:10:17.625Z,78.43
2023-02-13T00:11:20.616Z,78.32
2023-02-13T00:12:22.179Z,77.92
2023-02-13T00:13:23.723Z,77.71
2023-02-13T00:14:25.348Z,77.99
2023-02-13T00:15:27.092Z,77.61
2023-02-13T00:16:28.686Z,77.45
2023-02-13T00:17:30.448Z,77.98
2023-02-13T00:18:36.453Z,77.95
2023-02-13T00:19:38.050Z,77.75
2023-02-13T00:20:39.656Z,77.76
2023-02-13T00:21:41.236Z,77.79
2023-02-13T00:22:42.768Z,78.05
2023-02-13T00:23:44.477Z,77.44
2023-02-13T00:24:46.098Z,77.67
2023-02-13T00:25:47.688Z,77.81
2023-02-13T00:26:49.317Z,77.70
2023-02-13T00:27:52.269Z,77.39
2023-02-13T00:28:53.894Z,77.01
2023-02-13T00:29:55.415Z,76.90
2023-02-13T00:31:13.298Z,77.09
2023-02-13T00:32:15.061Z,76.86
2023-02-13T00:33:16.792Z,76.86
2023-02-13T00:34:18.380Z,77.09
2023-02-13T00:35:19.947Z,77.37
2023-02-13T00:36:22.669Z,77.25
2023-02-13T00:37:25.175Z,77.26
2023-02-13T00:38:26.676Z,77.13
2023-02-13T00:39:28.407Z,76.98
2023-02-13T00:40:29.958Z,76.88
2023-02-13T00:41:31.537Z,76.90
2023-02-13T00:42:33.097Z,76.79
2023-02-13T00:43:35.629Z,77.05
2023-02-13T00:44:37.219Z,76.56
2023-02-13T00:45:38.778Z,76.39
2023-02-13T00:46:40.388Z,76.43
2023-02-13T00:47:41.936Z,76.77
2023-02-13T00:48:44.371Z,77.38
2023-02-13T00:49:46.498Z,78.61
2023-02-13T00:50:48.176Z,80.21
2023-02-13T00:51:49.703Z,82.09
2023-02-13T00:52:51.208Z,83.66
2023-02-13T00:53:52.774Z,84.17
2023-02-13T00:54:54.389Z,85.46
2023-02-13T00:55:55.960Z,85.46
2023-02-13T00:56:57.583Z,85.65
2023-02-13T00:57:59.080Z,86.34
2023-02-13T00:59:00.650Z,85.89
2023-02-13T01:00:02.581Z,86.16
2023-02-13T01:01:04.252Z,86.51
2023-02-13T01:02:05.794Z,87.17
2023-02-13T01:03:07.620Z,87.12
2023-02-13T01:04:09.232Z,86.65
2023-02-13T01:05:10.823Z,86.27
2023-02-13T01:06:12.527Z,86.00
2023-02-13T01:07:15.768Z,85.76
2023-02-13T01:08:19.394Z,85.12
2023-02-13T01:09:20.928Z,84.75
2023-02-13T01:10:22.591Z,84.06
2023-02-13T01:11:24.234Z,84.61
2023-02-13T01:12:25.950Z,83.96
2023-02-13T01:13:27.702Z,84.43
2023-02-13T01:14:29.270Z,84.49
2023-02-13T01:15:31.130Z,84.69
2023-02-13T01:16:32.686Z,83.91
2023-02-13T01:17:34.274Z,84.86
2023-02-13T01:18:35.859Z,84.75
2023-02-13T01:19:37.451Z,84.74
2023-02-13T01:20:38.998Z,85.61
2023-02-13T01:21:40.522Z,86.17
2023-02-13T01:22:44.387Z,87.26
2023-02-13T01:23:46.977Z,87.19
2023-02-13T01:24:48.656Z,88.00
2023-02-13T01:25:51.798Z,88.51
2023-02-13T01:26:53.353Z,89.11
2023-02-13T01:27:54.909Z,89.91
2023-02-13T01:28:58.053Z,90.36
2023-02-13T01:30:00.187Z,90.44
2023-02-13T01:31:02.717Z,91.71
2023-02-13T01:32:05.247Z,91.74
2023-02-13T01:33:06.844Z,92.59
2023-02-13T01:34:08.359Z,93.30
2023-02-13T01:35:11.427Z,93.56
2023-02-13T01:36:14.441Z,93.31
2023-02-13T01:37:16.451Z,94.07
2023-02-13T01:38:18.786Z,93.67
2023-02-13T01:39:20.346Z,94.32
2023-02-13T01:40:21.998Z,94.02
2023-02-13T01:41:25.118Z,93.58
2023-02-13T01:42:30.216Z,93.99
2023-02-13T01:43:53.572Z,93.63
2023-02-13T01:45:04.128Z,94.77
2023-02-13T01:46:05.764Z,94.71
2023-02-13T01:47:09.789Z,94.84
2023-02-13T01:48:22.910Z,94.34
2023-02-13T01:49:26.128Z,94.00
2023-02-13T01:50:41.111Z,92.40
2023-02-13T01:51:43.742Z,91.67
2023-02-13T01:53:00.418Z,90.75
2023-02-13T01:54:07.526Z,90.52
2023-02-13T01:55:10.971Z,90.90
2023-02-13T01:56:29.936Z,92.30
2023-02-13T01:57:32.727Z,92.97
2023-02-13T01:58:37.953Z,94.15
2023-02-13T01:59:55.356Z,95.14
2023-02-13T02:00:58.612Z,95.79
2023-02-13T02:02:01.482Z,96.06
2023-02-13T02:03:11.053Z,95.43
2023-02-13T02:04:18.440Z,95.56
2023-02-13T02:05:24.033Z,94.71
2023-02-13T02:06:29.330Z,94.88
2023-02-13T02:07:32.788Z,94.24
2023-02-13T02:08:34.943Z,93.69
2023-02-13T02:09:41.102Z,93.49
2023-02-13T02:10:43.004Z,93.30
2023-02-13T02:11:47.521Z,93.32
2023-02-13T02:13:07.382Z,92.60
2023-02-13T02:14:09.139Z,92.24
2023-02-13T02:15:10.988Z,91.95
2023-02-13T02:16:12.798Z,91.41
2023-02-13T02:17:14.440Z,91.30
2023-02-13T02:18:19.685Z,90.82
2023-02-13T02:19:41.455Z,90.60
2023-02-13T02:20:43.002Z,90.52
2023-02-13T02:22:17.919Z,90.56
2023-02-13T02:23:59.659Z,89.99
2023-02-13T02:25:18.538Z,88.50
2023-02-13T02:27:01.619Z,87.89
2023-02-13T02:28:27.784Z,87.46
2023-02-13T02:29:32.194Z,87.04
2023-02-13T02:30:46.136Z,86.91
2023-02-13T02:32:09.669Z,86.88
2023-02-13T02:33:20.354Z,85.83
2023-02-13T02:34:37.096Z,85.84
2023-02-13T02:36:11.198Z,84.76
2023-02-13T02:37:43.778Z,83.94
2023-02-13T02:38:51.277Z,83.16
2023-02-13T02:40:19.054Z,83.12
2023-02-13T02:41:41.648Z,82.57
2023-02-13T02:42:55.602Z,82.54
2023-02-13T02:44:24.713Z,82.24
2023-02-13T02:45:40.904Z,81.99
2023-02-13T02:47:15.015Z,82.05
2023-02-13T02:48:53.228Z,81.48
2023-02-13T02:50:07.474Z,80.67
2023-02-13T02:51:33.083Z,80.98
2023-02-13T02:52:57.565Z,80.22
2023-02-13T02:54:35.810Z,80.08
2023-02-13T02:56:05.074Z,80.40
2023-02-13T02:57:49.863Z,79.91
2023-02-13T02:59:24.028Z,80.05
2023-02-13T03:00:47.506Z,80.18
2023-02-13T03:02:09.271Z,79.55
2023-02-13T03:03:43.890Z,80.10
2023-02-13T03:05:11.769Z,80.84
2023-02-13T03:06:38.535Z,80.79
2023-02-13T03:07:40.106Z,80.76
2023-02-13T03:09:04.620Z,81.20
2023-02-13T03:10:28.923Z,80.50
2023-02-13T03:11:49.253Z,81.64
2023-02-13T03:13:15.390Z,83.56
2023-02-13T03:14:21.232Z,83.49
2023-02-13T03:15:26.298Z,82.86
2023-02-13T03:16:46.238Z,82.61
2023-02-13T03:18:06.334Z,81.69
2023-02-13T03:19:36.838Z,82.98
2023-02-13T03:21:14.416Z,83.46
2023-02-13T03:22:42.178Z,83.90
2023-02-13T03:23:51.172Z,83.67
2023-02-13T03:25:10.990Z,84.34
2023-02-13T03:26:18.314Z,83.59
2023-02-13T03:28:26.612Z,84.09
2023-02-13T03:29:58.765Z,87.46
2023-02-13T03:31:29.896Z,88.59
2023-02-13T03:32:34.417Z,89.57
2023-02-13T03:33:45.005Z,91.53
2023-02-13T03:35:14.456Z,93.19
2023-02-13T03:36:55.758Z,94.03
2023-02-13T03:38:08.445Z,95.28
2023-02-13T03:39:09.997Z,95.00
2023-02-13T03:41:00.367Z,95.29
2023-02-13T03:42:06.227Z,94.32
2023-02-13T03:43:15.145Z,93.68
2023-02-13T03:44:40.243Z,93.18
2023-02-13T03:45:57.193Z,92.89
2023-02-13T03:47:02.382Z,92.50
2023-02-13T03:48:27.611Z,92.85
2023-02-13T03:50:04.044Z,92.62
2023-02-13T03:51:08.689Z,92.84
2023-02-13T03:52:23.263Z,93.13
2023-02-13T03:53:27.329Z,93.66
2023-02-13T03:54:53.797Z,93.24
2023-02-13T03:56:16.718Z,92.73
2023-02-13T03:57:39.865Z,92.12
2023-02-13T03:59:05.318Z,92.70
2023-02-13T04:00:11.168Z,93.54
2023-02-13T04:01:16.955Z,93.24
2023-02-13T04:02:24.541Z,92.87
2023-02-13T04:03:35.605Z,93.11
2023-02-13T04:04:49.948Z,91.65
2023-02-13T04:06:14.120Z,92.01
2023-02-13T04:07:29.617Z,91.24
2023-02-13T04:08:31.331Z,91.18
2023-02-13T04:09:37.465Z,91.09
2023-02-13T04:10:50.295Z,91.09
2023-02-13T04:12:03.349Z,92.70
2023-02-13T04:13:13.314Z,93.48
2023-02-13T04:14:22.002Z,93.79
2023-02-13T04:15:33.723Z,93.76
2023-02-13T04:16:42.635Z,93.22
2023-02-13T04:17:50.236Z,92.05
2023-02-13T04:18:53.162Z,91.69
2023-02-13T04:19:54.928Z,91.61
2023-02-13T04:20:56.816Z,91.20
2023-02-13T04:22:01.231Z,91.04
2023-02-13T04:23:08.720Z,91.13
2023-02-13T04:24:10.669Z,91.57
2023-02-13T04:25:13.964Z,90.74
2023-02-13T04:26:19.607Z,90.49
2023-02-13T04:27:21.199Z,90.55
2023-02-13T04:28:22.869Z,91.14
2023-02-13T04:29:25.973Z,91.86
2023-02-13T04:30:27.601Z,92.89
2023-02-13T04:31:29.208Z,92.93
2023-02-13T04:32:30.811Z,92.72
2023-02-13T04:33:32.349Z,92.12
2023-02-13T04:34:33.997Z,91.61
2023-02-13T04:35:35.585Z,91.60
2023-02-13T04:36:37.190Z,90.56
2023-02-13T04:37:38.799Z,90.23
2023-02-13T04:38:40.361Z,89.73
2023-02-13T04:39:41.934Z,89.43
2023-02-13T04:40:43.527Z,88.46
2023-02-13T04:41:45.244Z,88.91
2023-02-13T04:42:50.494Z,88.25
2023-02-13T04:43:52.585Z,88.44
2023-02-13T04:44:54.151Z,88.07
2023-02-13T04:45:55.736Z,87.61
2023-02-13T04:46:57.302Z,87.51
2023-02-13T04:47:59.463Z,87.90
2023-02-13T04:49:01.046Z,87.77
2023-02-13T04:50:02.680Z,86.52
2023-02-13T04:51:04.503Z,86.20
2023-02-13T04:52:06.113Z,85.99
2023-02-13T04:53:07.741Z,85.43
2023-02-13T04:54:11.228Z,85.67
2023-02-13T04:55:13.269Z,85.36
2023-02-13T04:56:15.156Z,85.09
2023-02-13T04:57:16.731Z,84.94
2023-02-13T04:58:18.502Z,84.64
2023-02-13T04:59:20.015Z,84.90
2023-02-13T05:00:23.364Z,83.92
2023-02-13T05:01:24.949Z,84.27
2023-02-13T05:02:26.714Z,83.76
2023-02-13T05:03:28.305Z,83.82
2023-02-13T05:04:29.932Z,83.78
2023-02-13T05:05:31.619Z,82.59
2023-02-13T05:06:33.180Z,82.74
2023-02-13T05:07:34.716Z,81.80
2023-02-13T05:08:36.307Z,81.93
2023-02-13T05:09:39.541Z,81.75
2023-02-13T05:10:42.084Z,81.52
2023-02-13T05:11:43.684Z,82.02
2023-02-13T05:12:45.235Z,81.91
2023-02-13T05:13:46.816Z,81.79
2023-02-13T05:14:48.384Z,82.78
2023-02-13T05:15:50.501Z,87.36
2023-02-13T05:16:52.278Z,88.17
2023-02-13T05:17:53.951Z,88.80
2023-02-13T05:18:55.509Z,88.13
2023-02-13T05:19:57.337Z,87.27
2023-02-13T05:21:17.181Z,87.04
2023-02-13T05:22:37.037Z,86.88
2023-02-13T05:23:38.592Z,87.10
2023-02-13T05:24:40.208Z,87.61
2023-02-13T05:25:42.406Z,87.35
2023-02-13T05:26:43.933Z,86.50
2023-02-13T05:27:45.493Z,86.98
2023-02-13T05:29:05.891Z,87.05
2023-02-13T05:30:07.797Z,86.51
2023-02-13T05:31:09.458Z,86.54
2023-02-13T05:32:11.275Z,86.93
2023-02-13T05:33:12.897Z,87.30
2023-02-13T05:34:14.906Z,88.05
2023-02-13T05:35:16.706Z,87.31
2023-02-13T05:36:18.226Z,87.26
2023-02-13T05:37:19.804Z,87.63
2023-02-13T05:38:21.370Z,86.87
2023-02-13T05:39:23.136Z,87.11
2023-02-13T05:40:24.677Z,89.19
2023-02-13T05:41:26.487Z,89.20
2023-02-13T05:42:28.112Z,88.90
2023-02-13T05:43:30.241Z,89.41
2023-02-13T05:44:32.041Z,89.93
2023-02-13T05:45:33.701Z,89.91
2023-02-13T05:46:39.228Z,90.36
2023-02-13T05:47:41.026Z,90.35
2023-02-13T05:48:42.565Z,89.64
2023-02-13T05:49:44.194Z,89.05
2023-02-13T05:50:47.282Z,88.76
2023-02-13T05:51:49.688Z,88.07
2023-02-13T05:52:51.221Z,87.55
2023-02-13T05:53:53.084Z,86.91
2023-02-13T05:54:54.738Z,86.80
2023-02-13T05:55:56.670Z,86.29
2023-02-13T05:56:58.237Z,85.72
2023-02-13T05:57:59.843Z,85.45
2023-02-13T05:59:01.412Z,85.43
2023-02-13T06:00:04.628Z,85.31
2023-02-13T06:01:06.270Z,85.25
2023-02-13T06:02:07.991Z,85.35
2023-02-13T06:03:09.542Z,85.28
2023-02-13T06:04:11.167Z,84.63
2023-02-13T06:05:12.809Z,84.49
2023-02-13T06:06:14.551Z,84.77
2023-02-13T06:07:16.171Z,85.02
2023-02-13T06:08:17.815Z,84.74
2023-02-13T06:09:19.378Z,84.40
2023-02-13T06:10:21.051Z,84.09
2023-02-13T06:11:22.643Z,83.78
2023-02-13T06:12:24.205Z,83.45
2023-02-13T06:13:26.103Z,83.34
2023-02-13T06:14:28.286Z,83.19
2023-02-13T06:15:29.830Z,83.35
2023-02-13T06:16:31.460Z,82.65
2023-02-13T06:17:33.059Z,82.85
2023-02-13T06:18:35.335Z,82.77
2023-02-13T06:19:36.941Z,82.59
2023-02-13T06:20:38.649Z,82.84
2023-02-13T06:21:40.231Z,82.44
2023-02-13T06:22:41.745Z,82.58
2023-02-13T06:23:43.362Z,83.38
2023-02-13T06:24:44.936Z,83.02
2023-02-13T06:25:46.486Z,83.67
2023-02-13T06:26:48.017Z,83.66
2023-02-13T06:27:49.625Z,83.03
2023-02-13T06:28:51.540Z,83.29
2023-02-13T06:29:53.148Z,83.03
2023-02-13T06:30:54.883Z,83.22
2023-02-13T06:31:57.528Z,82.72
2023-02-13T06:32:59.375Z,82.97
2023-02-13T06:34:01.038Z,81.83
2023-02-13T06:35:05.228Z,82.07
2023-02-13T06:36:07.560Z,81.62
2023-02-13T06:37:09.262Z,81.40
2023-02-13T06:38:10.811Z,81.22
2023-02-13T06:39:12.404Z,81.06
2023-02-13T06:40:14.965Z,82.13
2023-02-13T06:41:16.674Z,82.14
2023-02-13T06:42:18.915Z,82.34
2023-02-13T06:43:23.294Z,82.72
2023-02-13T06:44:24.924Z,83.07
2023-02-13T06:45:26.519Z,82.93
2023-02-13T06:46:28.143Z,83.91
2023-02-13T06:47:29.957Z,84.54
2023-02-13T06:48:31.523Z,83.83
2023-02-13T06:49:33.042Z,83.37
2023-02-13T06:50:34.751Z,82.63
2023-02-13T06:51:36.424Z,82.37
2023-02-13T06:52:38.086Z,81.85
2023-02-13T06:53:39.769Z,81.71
2023-02-13T06:54:47.759Z,81.38
2023-02-13T06:55:49.611Z,81.05
2023-02-13T06:56:51.352Z,80.72
2023-02-13T06:57:52.914Z,80.30
2023-02-13T06:58:54.467Z,80.06
2023-02-13T06:59:55.990Z,78.60
2023-02-13T07:00:57.881Z,77.87
2023-02-13T07:01:59.655Z,77.63
2023-02-13T07:03:03.420Z,78.08
2023-02-13T07:04:05.027Z,77.28
2023-02-13T07:05:07.224Z,76.06
2023-02-13T07:06:08.784Z,75.33
2023-02-13T07:07:10.399Z,75.95
2023-02-13T07:08:13.162Z,75.82
2023-02-13T07:09:14.803Z,75.89
2023-02-13T07:10:16.506Z,75.43
2023-02-13T07:11:19.615Z,75.79
2023-02-13T07:12:21.377Z,75.80
2023-02-13T07:13:23.306Z,75.61
2023-02-13T07:14:25.237Z,75.37
2023-02-13T07:15:27.335Z,74.86
2023-02-13T07:16:29.476Z,74.30
2023-02-13T07:17:31.602Z,74.40
2023-02-13T07:18:33.218Z,74.55
2023-02-13T07:19:34.756Z,73.79
2023-02-13T07:20:36.385Z,74.03
2023-02-13T07:21:38.111Z,74.79
2023-02-13T07:22:39.691Z,74.86
2023-02-13T07:23:41.512Z,74.90
2023-02-13T07:24:43.070Z,74.53
2023-02-13T07:25:44.583Z,73.66
2023-02-13T07:26:46.111Z,73.29
2023-02-13T07:27:47.643Z,72.67
2023-02-13T07:28:50.048Z,71.82
2023-02-13T07:29:52.931Z,72.19
2023-02-13T07:30:54.886Z,72.64
2023-02-13T07:31:58.076Z,72.45
2023-02-13T07:33:04.034Z,72.92
2023-02-13T07:34:05.632Z,72.31
2023-02-13T07:35:07.269Z,71.77
2023-02-13T07:36:09.003Z,71.88
2023-02-13T07:37:11.560Z,72.55
2023-02-13T07:38:13.183Z,73.16
2023-02-13T07:39:14.756Z,72.48
2023-02-13T07:40:16.312Z,72.47
2023-02-13T07:41:17.846Z,72.46
2023-02-13T07:42:19.467Z,71.49
2023-02-13T07:43:21.206Z,73.08
2023-02-13T07:44:22.718Z,72.71
2023-02-13T07:45:24.269Z,71.28
2023-02-13T07:46:25.878Z,71.79
2023-02-13T07:47:27.481Z,71.34
2023-02-13T07:48:30.244Z,70.73
2023-02-13T07:49:31.798Z,71.14
2023-02-13T07:50:33.368Z,71.34
2023-02-13T07:51:34.899Z,71.61
2023-02-13T07:52:37.963Z,70.90
2023-02-13T07:53:39.551Z,71.43
2023-02-13T07:54:47.427Z,73.29
2023-02-13T07:55:49.336Z,75.74
2023-02-13T07:56:50.913Z,76.73
2023-02-13T07:57:52.591Z,77.13
2023-02-13T07:58:54.192Z,77.95
2023-02-13T07:59:55.733Z,77.19
2023-02-13T08:00:57.344Z,78.14
2023-02-13T08:01:58.918Z,78.66
2023-02-13T08:03:01.648Z,77.60
2023-02-13T08:04:03.458Z,77.41
2023-02-13T08:05:05.512Z,77.21
2023-02-13T08:06:08.042Z,77.20
2023-02-13T08:07:09.613Z,75.42
2023-02-13T08:08:11.227Z,74.56
2023-02-13T08:09:39.748Z,75.45
2023-02-13T08:11:00.650Z,76.55
2023-02-13T08:12:02.276Z,75.17
2023-02-13T08:13:04.935Z,75.50
2023-02-13T08:14:06.441Z,75.47
2023-02-13T08:15:12.066Z,74.15
2023-02-13T08:16:13.632Z,72.08
2023-02-13T08:17:15.252Z,71.89
2023-02-13T08:18:18.899Z,71.88
2023-02-13T08:19:21.487Z,71.83
2023-02-13T08:20:24.074Z,69.85
2023-02-13T08:21:25.713Z,71.94
2023-02-13T08:22:27.268Z,71.00
2023-02-13T08:23:29.094Z,71.89
2023-02-13T08:24:30.683Z,74.43
2023-02-13T08:25:33.370Z,75.57
2023-02-13T08:26:35.167Z,75.61
2023-02-13T08:27:36.845Z,76.64
2023-02-13T08:28:38.455Z,76.02
2023-02-13T08:29:40.081Z,77.70
2023-02-13T08:30:41.794Z,78.30
2023-02-13T08:31:43.859Z,78.29
2023-02-13T08:32:54.510Z,77.01
2023-02-13T08:33:57.614Z,77.25
2023-02-13T08:34:59.179Z,76.93
2023-02-13T08:36:03.688Z,77.15
2023-02-13T08:37:05.267Z,75.78
2023-02-13T08:38:06.902Z,75.54
2023-02-13T08:39:09.961Z,75.12
2023-02-13T08:40:11.798Z,74.57
2023-02-13T08:41:14.139Z,73.42
2023-02-13T08:42:16.391Z,73.71
2023-02-13T08:43:18.135Z,72.39
2023-02-13T08:44:19.705Z,71.54
2023-02-13T08:45:21.271Z,72.26
2023-02-13T08:46:23.135Z,72.78
2023-02-13T08:47:24.697Z,70.88
2023-02-13T08:48:29.812Z,71.25
2023-02-13T08:49:31.360Z,73.30
2023-02-13T08:50:33.628Z,73.84
2023-02-13T08:51:36.180Z,74.52
2023-02-13T08:52:37.690Z,74.55
2023-02-13T08:53:40.178Z,73.00
2023-02-13T08:54:41.723Z,73.88
2023-02-13T08:55:43.262Z,73.92
2023-02-13T08:56:44.858Z,72.57
2023-02-13T08:57:46.591Z,72.66
2023-02-13T08:58:50.131Z,72.92
2023-02-13T08:59:51.745Z,73.46
2023-02-13T09:00:53.321Z,72.65
2023-02-13T09:01:54.902Z,73.82
2023-02-13T09:03:03.984Z,72.44
2023-02-13T09:04:05.810Z,73.46
2023-02-13T09:05:07.515Z,73.44
2023-02-13T09:06:09.102Z,72.01
2023-02-13T09:07:10.735Z,72.20
2023-02-13T09:08:13.718Z,71.18
2023-02-13T09:09:16.146Z,71.12
2023-02-13T09:10:18.331Z,70.96
2023-02-13T09:11:22.944Z,69.47
2023-02-13T09:12:24.553Z,71.62
2023-02-13T09:13:26.297Z,72.26
2023-02-13T09:14:27.866Z,71.67
2023-02-13T09:15:30.127Z,72.62
2023-02-13T09:16:31.896Z,71.57
2023-02-13T09:17:33.532Z,72.16
2023-02-13T09:18:35.461Z,71.99
2023-02-13T09:19:37.071Z,72.44
2023-02-13T09:20:38.641Z,73.23
2023-02-13T09:21:40.313Z,73.98
2023-02-13T09:22:42.122Z,73.65
2023-02-13T09:23:44.012Z,73.46
2023-02-13T09:24:45.601Z,71.44
2023-02-13T09:25:47.229Z,72.51
2023-02-13T09:26:48.956Z,72.07
2023-02-13T09:27:50.520Z,71.03
2023-02-13T09:28:52.077Z,71.25
2023-02-13T09:29:53.654Z,70.97
2023-02-13T09:30:55.412Z,72.54
2023-02-13T09:31:57.359Z,73.46
2023-02-13T09:32:59.051Z,72.11
2023-02-13T09:34:00.640Z,71.51
2023-02-13T09:35:02.232Z,71.37
2023-02-13T09:36:24.541Z,71.61
2023-02-13T09:37:27.131Z,70.40
2023-02-13T09:38:28.683Z,70.08
2023-02-13T09:39:30.316Z,70.49
2023-02-13T09:40:42.600Z,70.21
2023-02-13T09:41:47.322Z,70.19
2023-02-13T09:42:50.178Z,68.48
2023-02-13T09:44:06.460Z,68.11
2023-02-13T09:45:12.304Z,66.63
2023-02-13T09:46:40.640Z,68.21
2023-02-13T09:47:45.197Z,68.14
2023-02-13T09:48:56.150Z,66.84
2023-02-13T09:50:23.081Z,66.64
2023-02-13T09:51:27.837Z,65.98
2023-02-13T09:52:33.627Z,65.74
2023-02-13T09:53:36.355Z,66.67
2023-02-13T09:54:38.100Z,67.39
2023-02-13T09:55:53.014Z,66.65
2023-02-13T09:57:16.399Z,67.92
2023-02-13T09:58:27.143Z,68.12
2023-02-13T10:00:04.053Z,69.02
2023-02-13T10:01:17.684Z,68.27
2023-02-13T10:02:43.041Z,68.61
2023-02-13T10:04:11.613Z,68.32
2023-02-13T10:05:31.767Z,66.48
2023-02-13T10:06:50.054Z,66.59
2023-02-13T10:08:16.528Z,67.38
2023-02-13T10:09:41.152Z,67.71
2023-02-13T10:10:45.289Z,66.50
2023-02-13T10:12:16.099Z,64.14
2023-02-13T10:13:39.702Z,64.14
2023-02-13T10:14:47.361Z,64.49
2023-02-13T10:16:07.698Z,64.20
2023-02-13T10:17:18.777Z,63.46
2023-02-13T10:18:25.809Z,63.80
2023-02-13T10:19:55.388Z,64.26
2023-02-13T10:21:02.335Z,63.54
2023-02-13T10:22:26.064Z,63.10
2023-02-13T10:23:34.340Z,64.01
2023-02-13T10:24:38.976Z,63.42
2023-02-13T10:25:58.651Z,63.45
2023-02-13T10:27:05.252Z,63.00
2023-02-13T10:28:13.461Z,64.20
2023-02-13T10:29:51.262Z,63.55
2023-02-13T10:30:56.941Z,65.10
2023-02-13T10:32:02.267Z,64.29
2023-02-13T10:33:21.653Z,64.19
2023-02-13T10:34:27.332Z,63.38
2023-02-13T10:35:31.434Z,63.22
2023-02-13T10:36:37.686Z,61.25
2023-02-13T10:37:39.316Z,61.83
2023-02-13T10:38:56.826Z,62.91
2023-02-13T10:39:58.470Z,62.84
2023-02-13T10:41:10.647Z,63.47
2023-02-13T10:42:24.683Z,63.63
2023-02-13T10:43:30.124Z,64.19
2023-02-13T10:44:41.251Z,62.94
2023-02-13T10:45:45.509Z,62.97
2023-02-13T10:46:58.915Z,62.32
2023-02-13T10:48:14.796Z,62.59
2023-02-13T10:49:18.819Z,62.05
2023-02-13T10:50:34.459Z,62.36
2023-02-13T10:52:00.821Z,61.36
2023-02-13T10:53:32.142Z,63.71
2023-02-13T10:55:07.529Z,63.35
2023-02-13T10:56:25.653Z,62.88
2023-02-13T10:57:55.695Z,63.30
2023-02-13T10:59:19.623Z,65.27
2023-02-13T11:00:43.301Z,66.35
2023-02-13T11:01:52.733Z,66.13
2023-02-13T11:02:56.347Z,66.42
2023-02-13T11:04:13.552Z,66.23
2023-02-13T11:05:30.359Z,66.74
2023-02-13T11:06:34.728Z,66.34
2023-02-13T11:07:39.214Z,65.67
2023-02-13T11:08:47.637Z,65.95
2023-02-13T11:09:51.873Z,64.80
2023-02-13T11:10:53.658Z,62.69
2023-02-13T11:11:55.306Z,62.52
2023-02-13T11:12:56.852Z,62.16
2023-02-13T11:14:12.597Z,62.14
2023-02-13T11:15:40.365Z,65.35
2023-02-13T11:17:05.922Z,65.34
2023-02-13T11:18:19.389Z,64.88
2023-02-13T11:19:37.506Z,64.39
2023-02-13T11:20:44.680Z,64.85
2023-02-13T11:21:47.679Z,63.14
2023-02-13T11:22:49.436Z,61.91
2023-02-13T11:23:53.573Z,61.38
2023-02-13T11:25:00.699Z,62.31
2023-02-13T11:26:13.277Z,62.33
2023-02-13T11:27:15.071Z,61.58
2023-02-13T11:28:21.067Z,60.85
2023-02-13T11:29:26.959Z,61.27
2023-02-13T11:30:36.734Z,59.92
2023-02-13T11:31:38.669Z,61.33
2023-02-13T11:32:40.472Z,63.10
2023-02-13T11:33:42.705Z,62.59
2023-02-13T11:34:45.449Z,60.78
2023-02-13T11:35:48.077Z,61.33
2023-02-13T11:36:54.533Z,62.92
2023-02-13T11:38:20.869Z,63.46
2023-02-13T11:39:26.850Z,62.86
2023-02-13T11:40:32.449Z,63.35
2023-02-13T11:41:42.317Z,62.40
2023-02-13T11:42:48.033Z,62.80
2023-02-13T11:44:02.073Z,63.00
2023-02-13T11:45:19.843Z,62.02
2023-02-13T11:46:25.458Z,62.95
2023-02-13T11:47:42.326Z,61.39
2023-02-13T11:48:55.777Z,61.56
2023-02-13T11:49:57.390Z,59.60
2023-02-13T11:50:59.386Z,59.27
2023-02-13T11:52:23.012Z,58.43
2023-02-13T11:53:31.502Z,54.89
2023-02-13T11:54:35.247Z,54.54
2023-02-13T11:55:39.753Z,54.53
2023-02-13T11:57:07.369Z,54.99
2023-02-13T11:58:11.861Z,56.85
2023-02-13T11:59:14.218Z,58.19
2023-02-13T12:00:37.830Z,58.27
2023-02-13T12:01:39.463Z,57.24
2023-02-13T12:02:48.047Z,55.40
2023-02-13T12:04:18.502Z,54.75
2023-02-13T12:05:22.882Z,53.98
2023-02-13T12:06:24.405Z,53.75
2023-02-13T12:07:31.036Z,54.12
2023-02-13T12:08:35.615Z,54.43
2023-02-13T12:09:40.197Z,54.51
2023-02-13T12:10:41.875Z,53.04
2023-02-13T12:11:48.330Z,52.43
2023-02-13T12:13:06.048Z,53.23
2023-02-13T12:14:14.056Z,53.58
2023-02-13T12:15:22.440Z,53.14
2023-02-13T12:16:29.424Z,53.07
2023-02-13T12:17:33.089Z,54.94
2023-02-13T12:18:38.810Z,54.63
2023-02-13T12:19:43.879Z,54.35
2023-02-13T12:21:11.435Z,54.04
2023-02-13T12:22:21.911Z,53.49
2023-02-13T12:23:29.556Z,53.55
2023-02-13T12:25:16.543Z,53.80
2023-02-13T12:26:50.525Z,51.71
2023-02-13T12:28:35.487Z,53.08
2023-02-13T12:29:55.756Z,52.80
2023-02-13T12:31:09.424Z,53.77
2023-02-13T12:32:19.229Z,52.02
2023-02-13T12:33:36.874Z,52.71
2023-02-13T12:35:15.897Z,51.08
2023-02-13T12:36:23.502Z,51.61
2023-02-13T12:37:59.161Z,52.54
2023-02-13T12:39:26.244Z,51.43
2023-02-13T12:40:42.930Z,51.89
2023-02-13T12:41:50.448Z,51.90
2023-02-13T12:43:07.719Z,51.78
2023-02-13T12:44:33.650Z,52.53
2023-02-13T12:45:43.541Z,49.99
2023-02-13T12:47:06.489Z,51.91
2023-02-13T12:48:48.291Z,50.19
2023-02-13T12:50:06.483Z,50.83
2023-02-13T12:51:26.890Z,50.81
2023-02-13T12:53:01.378Z,51.26
2023-02-13T12:54:21.367Z,51.13
2023-02-13T12:56:00.482Z,50.93
2023-02-13T12:57:23.358Z,50.88
2023-02-13T12:58:38.481Z,50.83
2023-02-13T13:00:15.494Z,50.68
2023-02-13T13:01:44.601Z,50.53
2023-02-13T13:02:57.258Z,50.73
2023-02-13T13:04:07.975Z,50.97
2023-02-13T13:05:24.775Z,52.05
2023-02-13T13:06:35.567Z,52.12
2023-02-13T13:08:00.651Z,51.65
2023-02-13T13:09:23.571Z,51.76
2023-02-13T13:10:35.987Z,51.26
2023-02-13T13:11:59.010Z,51.73
2023-02-13T13:13:27.929Z,51.13
2023-02-13T13:14:48.312Z,51.73
2023-02-13T13:16:04.846Z,50.46
2023-02-13T13:17:34.136Z,51.05
2023-02-13T13:18:50.215Z,51.44
2023-02-13T13:20:21.380Z,51.34
2023-02-13T13:21:53.466Z,51.79
2023-02-13T13:23:00.097Z,52.06
2023-02-13T13:24:25.964Z,50.86
2023-02-13T13:25:43.978Z,50.69
2023-02-13T13:26:49.942Z,51.17
2023-02-13T13:27:57.947Z,51.68
2023-02-13T13:29:03.888Z,50.82
2023-02-13T13:30:18.029Z,50.97
2023-02-13T13:31:21.261Z,50.77
2023-02-13T13:32:23.838Z,50.98
2023-02-13T13:33:28.335Z,51.21
2023-02-13T13:34:31.644Z,51.32
2023-02-13T13:35:34.463Z,51.61
2023-02-13T13:36:54.016Z,50.62
2023-02-13T13:38:06.681Z,50.90
2023-02-13T13:39:24.792Z,51.58
2023-02-13T13:40:32.368Z,51.11
2023-02-13T13:41:51.692Z,49.63
2023-02-13T13:43:29.795Z,48.87
2023-02-13T13:44:49.233Z,49.18
2023-02-13T13:46:09.441Z,49.01
2023-02-13T13:47:23.818Z,50.17
2023-02-13T13:49:02.823Z,50.13
2023-02-13T13:50:06.990Z,50.58
2023-02-13T13:51:17.912Z,50.63
2023-02-13T13:52:21.173Z,50.45
2023-02-13T13:53:26.481Z,50.22
2023-02-13T13:54:35.070Z,50.29
2023-02-13T13:56:00.972Z,49.58
2023-02-13T13:57:02.483Z,49.85
2023-02-13T13:58:04.740Z,49.93
2023-02-13T13:59:17.635Z,48.81
2023-02-13T14:00:26.159Z,49.12
2023-02-13T14:01:29.681Z,48.57
2023-02-13T14:02:48.327Z,47.93
2023-02-13T14:03:52.602Z,48.39
2023-02-13T14:05:15.611Z,48.26
2023-02-13T14:06:45.009Z,48.82
2023-02-13T14:07:49.510Z,48.86
2023-02-13T14:09:01.731Z,48.51
2023-02-13T14:10:04.697Z,48.26
2023-02-13T14:11:25.624Z,48.23
2023-02-13T14:12:30.175Z,48.25
2023-02-13T14:13:40.304Z,47.57
2023-02-13T14:14:41.789Z,48.16
2023-02-13T14:15:44.673Z,48.72
2023-02-13T14:16:46.816Z,48.53
2023-02-13T14:17:52.028Z,48.35
2023-02-13T14:18:53.763Z,48.47
2023-02-13T14:19:58.273Z,48.94
2023-02-13T14:21:02.457Z,48.19
2023-02-13T14:22:19.721Z,48.33
2023-02-13T14:23:50.414Z,48.07
2023-02-13T14:24:58.042Z,47.56
2023-02-13T14:26:17.623Z,50.42
2023-02-13T14:27:39.308Z,48.66
2023-02-13T14:28:43.904Z,47.51
2023-02-13T14:29:48.656Z,48.65
2023-02-13T14:30:55.796Z,49.46
2023-02-13T14:32:03.819Z,48.86
2023-02-13T14:33:28.671Z,47.90
2023-02-13T14:34:33.880Z,46.40
2023-02-13T14:35:37.993Z,46.53
2023-02-13T14:37:02.211Z,46.58
2023-02-13T14:38:07.986Z,47.27
2023-02-13T14:39:34.315Z,47.15